sensor_id;sensor_type;location;lat;lon;timestamp;P1;durP1;ratioP1;P2;durP2;ratioP2
8293;SDS011;4185;41.506;24.938;2022-07-29T00:01:50;4.30;;;3.57;;
8293;SDS011;4185;41.506;24.938;2022-07-29T00:04:18;5.20;;;3.47;;
8293;SDS011;4185;41.506;24.938;2022-07-29T00:06:45;3.57;;;3.13;;
8293;SDS011;4185;41.506;24.938;2022-07-29T00:09:13;3.90;;;3.50;;
8293;SDS011;4185;41.506;24.938;2022-07-29T00:11:40;4.63;;;4.00;;
8293;SDS011;4185;41.506;24.938;2022-07-29T00:14:07;3.93;;;3.53;;
8293;SDS011;4185;41.506;24.938;2022-07-29T00:16:34;4.33;;;3.73;;
8293;SDS011;4185;41.506;24.938;2022-07-29T00:19:02;5.87;;;3.93;;
8293;SDS011;4185;41.506;24.938;2022-07-29T00:21:29;4.00;;;3.60;;
8293;SDS011;4185;41.506;24.938;2022-07-29T00:23:56;6.87;;;4.40;;
8293;SDS011;4185;41.506;24.938;2022-07-29T00:26:24;4.30;;;3.57;;
8293;SDS011;4185;41.506;24.938;2022-07-29T00:28:52;4.13;;;3.73;;
8293;SDS011;4185;41.506;24.938;2022-07-29T00:31:19;4.20;;;3.80;;
8293;SDS011;4185;41.506;24.938;2022-07-29T00:33:46;4.10;;;3.70;;
8293;SDS011;4185;41.506;24.938;2022-07-29T00:36:13;4.23;;;3.80;;
8293;SDS011;4185;41.506;24.938;2022-07-29T00:38:39;4.03;;;3.63;;
8293;SDS011;4185;41.506;24.938;2022-07-29T00:41:09;4.53;;;3.60;;
8293;SDS011;4185;41.506;24.938;2022-07-29T00:43:37;5.50;;;4.37;;
8293;SDS011;4185;41.506;24.938;2022-07-29T00:46:04;4.40;;;4.00;;
8293;SDS011;4185;41.506;24.938;2022-07-29T00:48:31;4.17;;;3.77;;
8293;SDS011;4185;41.506;24.938;2022-07-29T00:50:58;6.17;;;4.37;;
8293;SDS011;4185;41.506;24.938;2022-07-29T00:53:27;4.13;;;3.73;;
8293;SDS011;4185;41.506;24.938;2022-07-29T00:55:55;5.10;;;4.17;;
8293;SDS011;4185;41.506;24.938;2022-07-29T00:58:23;5.23;;;4.20;;
8293;SDS011;4185;41.506;24.938;2022-07-29T01:00:52;5.23;;;4.27;;
8293;SDS011;4185;41.506;24.938;2022-07-29T01:03:19;5.93;;;4.20;;
8293;SDS011;4185;41.506;24.938;2022-07-29T01:05:46;5.83;;;4.23;;
8293;SDS011;4185;41.506;24.938;2022-07-29T01:08:13;4.30;;;3.90;;
8293;SDS011;4185;41.506;24.938;2022-07-29T01:10:41;4.20;;;3.63;;
8293;SDS011;4185;41.506;24.938;2022-07-29T01:13:10;4.03;;;3.63;;
8293;SDS011;4185;41.506;24.938;2022-07-29T01:15:40;4.57;;;4.00;;
8293;SDS011;4185;41.506;24.938;2022-07-29T01:18:11;5.03;;;4.63;;
8293;SDS011;4185;41.506;24.938;2022-07-29T01:20:49;6.70;;;3.93;;
8293;SDS011;4185;41.506;24.938;2022-07-29T01:23:40;4.60;;;3.70;;
8293;SDS011;4185;41.506;24.938;2022-07-29T01:26:31;5.60;;;3.97;;
8293;SDS011;4185;41.506;24.938;2022-07-29T01:29:09;4.40;;;3.30;;
8293;SDS011;4185;41.506;24.938;2022-07-29T01:31:42;5.70;;;4.20;;
8293;SDS011;4185;41.506;24.938;2022-07-29T01:34:11;4.10;;;3.70;;
8293;SDS011;4185;41.506;24.938;2022-07-29T01:36:47;4.17;;;3.77;;
8293;SDS011;4185;41.506;24.938;2022-07-29T01:39:17;5.10;;;3.90;;
8293;SDS011;4185;41.506;24.938;2022-07-29T01:41:50;6.33;;;4.10;;
8293;SDS011;4185;41.506;24.938;2022-07-29T01:44:26;4.30;;;3.90;;
8293;SDS011;4185;41.506;24.938;2022-07-29T01:46:58;4.70;;;4.00;;
8293;SDS011;4185;41.506;24.938;2022-07-29T01:49:29;5.50;;;3.97;;
8293;SDS011;4185;41.506;24.938;2022-07-29T01:52:02;6.03;;;3.90;;
8293;SDS011;4185;41.506;24.938;2022-07-29T01:54:34;4.87;;;3.87;;
8293;SDS011;4185;41.506;24.938;2022-07-29T01:57:08;4.73;;;4.23;;
8293;SDS011;4185;41.506;24.938;2022-07-29T01:59:39;4.83;;;3.80;;
8293;SDS011;4185;41.506;24.938;2022-07-29T02:02:08;4.47;;;4.07;;
8293;SDS011;4185;41.506;24.938;2022-07-29T02:04:37;4.63;;;3.93;;
8293;SDS011;4185;41.506;24.938;2022-07-29T02:07:06;5.50;;;4.00;;
8293;SDS011;4185;41.506;24.938;2022-07-29T02:09:36;4.27;;;3.87;;
8293;SDS011;4185;41.506;24.938;2022-07-29T02:12:04;4.70;;;3.90;;
8293;SDS011;4185;41.506;24.938;2022-07-29T02:14:37;5.90;;;3.80;;
8293;SDS011;4185;41.506;24.938;2022-07-29T02:17:08;4.40;;;4.00;;
8293;SDS011;4185;41.506;24.938;2022-07-29T02:19:38;4.60;;;4.07;;
8293;SDS011;4185;41.506;24.938;2022-07-29T02:22:08;4.57;;;4.17;;
8293;SDS011;4185;41.506;24.938;2022-07-29T02:24:37;4.10;;;3.70;;
8293;SDS011;4185;41.506;24.938;2022-07-29T02:27:07;4.93;;;3.87;;
8293;SDS011;4185;41.506;24.938;2022-07-29T02:29:35;4.47;;;4.00;;
8293;SDS011;4185;41.506;24.938;2022-07-29T02:32:05;4.77;;;3.60;;
8293;SDS011;4185;41.506;24.938;2022-07-29T02:34:34;7.23;;;4.03;;
8293;SDS011;4185;41.506;24.938;2022-07-29T02:37:04;4.07;;;3.60;;
8293;SDS011;4185;41.506;24.938;2022-07-29T02:39:31;4.13;;;3.73;;
8293;SDS011;4185;41.506;24.938;2022-07-29T02:42:01;4.43;;;4.03;;
8293;SDS011;4185;41.506;24.938;2022-07-29T02:44:31;4.80;;;4.40;;
8293;SDS011;4185;41.506;24.938;2022-07-29T02:47:02;4.30;;;3.90;;
8293;SDS011;4185;41.506;24.938;2022-07-29T02:49:37;4.40;;;4.00;;
8293;SDS011;4185;41.506;24.938;2022-07-29T02:52:08;4.10;;;3.70;;
8293;SDS011;4185;41.506;24.938;2022-07-29T02:54:39;5.97;;;4.07;;
8293;SDS011;4185;41.506;24.938;2022-07-29T02:57:11;5.27;;;4.30;;
8293;SDS011;4185;41.506;24.938;2022-07-29T02:59:45;5.10;;;4.10;;
8293;SDS011;4185;41.506;24.938;2022-07-29T03:02:17;5.03;;;4.37;;
8293;SDS011;4185;41.506;24.938;2022-07-29T03:04:46;5.73;;;4.07;;
8293;SDS011;4185;41.506;24.938;2022-07-29T03:07:15;5.00;;;4.50;;
8293;SDS011;4185;41.506;24.938;2022-07-29T03:09:45;4.90;;;4.40;;
8293;SDS011;4185;41.506;24.938;2022-07-29T03:12:12;4.07;;;3.67;;
8293;SDS011;4185;41.506;24.938;2022-07-29T03:14:40;4.40;;;4.00;;
8293;SDS011;4185;41.506;24.938;2022-07-29T03:17:09;6.90;;;4.27;;
8293;SDS011;4185;41.506;24.938;2022-07-29T03:19:37;5.07;;;4.00;;
8293;SDS011;4185;41.506;24.938;2022-07-29T03:22:05;4.43;;;3.97;;
8293;SDS011;4185;41.506;24.938;2022-07-29T03:24:33;7.57;;;3.90;;
8293;SDS011;4185;41.506;24.938;2022-07-29T03:27:01;5.00;;;3.70;;
8293;SDS011;4185;41.506;24.938;2022-07-29T03:29:28;4.40;;;4.00;;
8293;SDS011;4185;41.506;24.938;2022-07-29T03:31:55;5.40;;;4.17;;
8293;SDS011;4185;41.506;24.938;2022-07-29T03:34:22;4.40;;;3.97;;
8293;SDS011;4185;41.506;24.938;2022-07-29T03:36:50;4.83;;;4.20;;
8293;SDS011;4185;41.506;24.938;2022-07-29T03:39:18;6.47;;;3.93;;
8293;SDS011;4185;41.506;24.938;2022-07-29T03:41:48;8.17;;;4.10;;
8293;SDS011;4185;41.506;24.938;2022-07-29T03:44:18;5.50;;;4.57;;
8293;SDS011;4185;41.506;24.938;2022-07-29T03:46:47;4.50;;;4.10;;
8293;SDS011;4185;41.506;24.938;2022-07-29T03:49:15;4.00;;;3.60;;
8293;SDS011;4185;41.506;24.938;2022-07-29T03:51:44;6.73;;;4.73;;
8293;SDS011;4185;41.506;24.938;2022-07-29T03:54:13;5.73;;;4.07;;
8293;SDS011;4185;41.506;24.938;2022-07-29T03:56:42;6.50;;;4.50;;
8293;SDS011;4185;41.506;24.938;2022-07-29T03:59:11;4.30;;;3.90;;
8293;SDS011;4185;41.506;24.938;2022-07-29T04:01:39;6.10;;;4.70;;
8293;SDS011;4185;41.506;24.938;2022-07-29T04:04:07;4.57;;;4.17;;
8293;SDS011;4185;41.506;24.938;2022-07-29T04:06:38;4.57;;;4.17;;
8293;SDS011;4185;41.506;24.938;2022-07-29T04:09:05;6.97;;;4.50;;
8293;SDS011;4185;41.506;24.938;2022-07-29T04:11:34;4.30;;;3.90;;
8293;SDS011;4185;41.506;24.938;2022-07-29T04:14:01;5.77;;;4.37;;
8293;SDS011;4185;41.506;24.938;2022-07-29T04:16:28;4.80;;;3.90;;
8293;SDS011;4185;41.506;24.938;2022-07-29T04:18:55;5.27;;;4.30;;
8293;SDS011;4185;41.506;24.938;2022-07-29T04:21:22;6.03;;;3.90;;
8293;SDS011;4185;41.506;24.938;2022-07-29T04:23:49;5.43;;;3.80;;
8293;SDS011;4185;41.506;24.938;2022-07-29T04:26:16;5.13;;;4.07;;
8293;SDS011;4185;41.506;24.938;2022-07-29T04:28:44;5.47;;;4.27;;
8293;SDS011;4185;41.506;24.938;2022-07-29T04:31:12;6.27;;;3.97;;
8293;SDS011;4185;41.506;24.938;2022-07-29T04:33:39;5.30;;;4.73;;
8293;SDS011;4185;41.506;24.938;2022-07-29T04:36:06;6.43;;;4.17;;
8293;SDS011;4185;41.506;24.938;2022-07-29T04:38:33;5.33;;;4.57;;
8293;SDS011;4185;41.506;24.938;2022-07-29T04:41:00;6.73;;;4.17;;
8293;SDS011;4185;41.506;24.938;2022-07-29T04:43:27;5.20;;;4.37;;
8293;SDS011;4185;41.506;24.938;2022-07-29T04:45:55;6.00;;;3.97;;
8293;SDS011;4185;41.506;24.938;2022-07-29T04:48:22;4.17;;;3.77;;
8293;SDS011;4185;41.506;24.938;2022-07-29T04:50:49;5.17;;;4.20;;
8293;SDS011;4185;41.506;24.938;2022-07-29T04:53:15;4.73;;;4.27;;
8293;SDS011;4185;41.506;24.938;2022-07-29T04:55:42;5.00;;;4.07;;
8293;SDS011;4185;41.506;24.938;2022-07-29T04:58:09;4.60;;;4.20;;
8293;SDS011;4185;41.506;24.938;2022-07-29T05:00:36;5.00;;;4.37;;
8293;SDS011;4185;41.506;24.938;2022-07-29T05:03:05;5.97;;;4.20;;
8293;SDS011;4185;41.506;24.938;2022-07-29T05:05:31;4.53;;;4.10;;
8293;SDS011;4185;41.506;24.938;2022-07-29T05:07:58;7.37;;;4.97;;
8293;SDS011;4185;41.506;24.938;2022-07-29T05:10:25;5.87;;;4.70;;
8293;SDS011;4185;41.506;24.938;2022-07-29T05:12:52;6.17;;;4.70;;
8293;SDS011;4185;41.506;24.938;2022-07-29T05:15:19;5.43;;;4.40;;
8293;SDS011;4185;41.506;24.938;2022-07-29T05:17:46;7.90;;;4.30;;
8293;SDS011;4185;41.506;24.938;2022-07-29T05:20:14;5.97;;;4.73;;
8293;SDS011;4185;41.506;24.938;2022-07-29T05:22:40;5.03;;;4.43;;
8293;SDS011;4185;41.506;24.938;2022-07-29T05:25:07;10.23;;;4.80;;
8293;SDS011;4185;41.506;24.938;2022-07-29T05:27:35;10.53;;;5.47;;
8293;SDS011;4185;41.506;24.938;2022-07-29T05:30:03;8.13;;;4.90;;
8293;SDS011;4185;41.506;24.938;2022-07-29T05:32:30;7.27;;;4.23;;
8293;SDS011;4185;41.506;24.938;2022-07-29T05:34:57;4.80;;;4.27;;
8293;SDS011;4185;41.506;24.938;2022-07-29T05:37:25;5.37;;;4.40;;
8293;SDS011;4185;41.506;24.938;2022-07-29T05:39:52;7.47;;;4.40;;
8293;SDS011;4185;41.506;24.938;2022-07-29T05:42:19;4.97;;;4.50;;
8293;SDS011;4185;41.506;24.938;2022-07-29T05:44:46;6.33;;;4.40;;
8293;SDS011;4185;41.506;24.938;2022-07-29T05:47:13;5.23;;;4.30;;
8293;SDS011;4185;41.506;24.938;2022-07-29T05:49:41;5.07;;;4.57;;
8293;SDS011;4185;41.506;24.938;2022-07-29T05:52:07;4.93;;;4.43;;
8293;SDS011;4185;41.506;24.938;2022-07-29T05:54:36;8.73;;;4.70;;
8293;SDS011;4185;41.506;24.938;2022-07-29T05:57:03;5.50;;;4.40;;
8293;SDS011;4185;41.506;24.938;2022-07-29T05:59:30;5.00;;;4.50;;
8293;SDS011;4185;41.506;24.938;2022-07-29T06:01:57;6.17;;;4.20;;
8293;SDS011;4185;41.506;24.938;2022-07-29T06:04:24;4.53;;;4.00;;
8293;SDS011;4185;41.506;24.938;2022-07-29T06:06:51;6.77;;;4.50;;
8293;SDS011;4185;41.506;24.938;2022-07-29T06:09:18;5.77;;;4.43;;
8293;SDS011;4185;41.506;24.938;2022-07-29T06:11:46;4.50;;;4.07;;
8293;SDS011;4185;41.506;24.938;2022-07-29T06:14:13;8.10;;;4.90;;
8293;SDS011;4185;41.506;24.938;2022-07-29T06:16:40;5.90;;;4.17;;
8293;SDS011;4185;41.506;24.938;2022-07-29T06:19:07;6.33;;;4.57;;
8293;SDS011;4185;41.506;24.938;2022-07-29T06:21:34;5.37;;;4.87;;
8293;SDS011;4185;41.506;24.938;2022-07-29T06:24:01;5.23;;;4.73;;
8293;SDS011;4185;41.506;24.938;2022-07-29T06:26:28;5.20;;;4.70;;
8293;SDS011;4185;41.506;24.938;2022-07-29T06:28:56;5.37;;;4.87;;
8293;SDS011;4185;41.506;24.938;2022-07-29T06:31:23;7.87;;;5.00;;
8293;SDS011;4185;41.506;24.938;2022-07-29T06:33:50;8.37;;;4.17;;
8293;SDS011;4185;41.506;24.938;2022-07-29T06:36:18;5.40;;;4.80;;
8293;SDS011;4185;41.506;24.938;2022-07-29T06:38:44;5.50;;;4.90;;
8293;SDS011;4185;41.506;24.938;2022-07-29T06:41:11;5.70;;;4.90;;
8293;SDS011;4185;41.506;24.938;2022-07-29T06:43:41;4.77;;;4.37;;
8293;SDS011;4185;41.506;24.938;2022-07-29T06:46:11;5.23;;;4.73;;
8293;SDS011;4185;41.506;24.938;2022-07-29T06:48:40;5.73;;;4.97;;
8293;SDS011;4185;41.506;24.938;2022-07-29T06:51:08;6.73;;;4.80;;
8293;SDS011;4185;41.506;24.938;2022-07-29T06:53:36;5.00;;;4.50;;
8293;SDS011;4185;41.506;24.938;2022-07-29T06:56:05;5.40;;;4.60;;
8293;SDS011;4185;41.506;24.938;2022-07-29T06:58:33;4.57;;;4.17;;
8293;SDS011;4185;41.506;24.938;2022-07-29T07:01:01;5.60;;;4.57;;
8293;SDS011;4185;41.506;24.938;2022-07-29T07:03:31;5.47;;;4.20;;
8293;SDS011;4185;41.506;24.938;2022-07-29T07:05:58;4.20;;;3.80;;
8293;SDS011;4185;41.506;24.938;2022-07-29T07:08:25;4.30;;;3.80;;
8293;SDS011;4185;41.506;24.938;2022-07-29T07:10:52;3.60;;;3.30;;
8293;SDS011;4185;41.506;24.938;2022-07-29T07:13:20;3.80;;;3.50;;
8293;SDS011;4185;41.506;24.938;2022-07-29T07:15:47;3.67;;;3.37;;
8293;SDS011;4185;41.506;24.938;2022-07-29T07:18:13;3.80;;;3.50;;
8293;SDS011;4185;41.506;24.938;2022-07-29T07:20:42;4.10;;;3.60;;
8293;SDS011;4185;41.506;24.938;2022-07-29T07:23:09;5.90;;;3.23;;
8293;SDS011;4185;41.506;24.938;2022-07-29T07:25:36;3.67;;;3.30;;
8293;SDS011;4185;41.506;24.938;2022-07-29T07:28:04;3.80;;;3.50;;
8293;SDS011;4185;41.506;24.938;2022-07-29T07:30:31;4.10;;;3.60;;
8293;SDS011;4185;41.506;24.938;2022-07-29T07:32:57;3.60;;;3.30;;
8293;SDS011;4185;41.506;24.938;2022-07-29T07:35:25;3.90;;;3.50;;
8293;SDS011;4185;41.506;24.938;2022-07-29T07:37:54;3.77;;;3.10;;
8293;SDS011;4185;41.506;24.938;2022-07-29T07:40:21;3.17;;;2.97;;
8293;SDS011;4185;41.506;24.938;2022-07-29T07:42:48;3.80;;;3.40;;
8293;SDS011;4185;41.506;24.938;2022-07-29T07:45:14;3.80;;;3.43;;
8293;SDS011;4185;41.506;24.938;2022-07-29T07:47:42;3.07;;;2.83;;
8293;SDS011;4185;41.506;24.938;2022-07-29T07:50:09;3.40;;;3.07;;
8293;SDS011;4185;41.506;24.938;2022-07-29T07:52:45;3.37;;;3.07;;
8293;SDS011;4185;41.506;24.938;2022-07-29T07:55:14;3.50;;;3.20;;
8293;SDS011;4185;41.506;24.938;2022-07-29T07:57:41;3.40;;;3.10;;
8293;SDS011;4185;41.506;24.938;2022-07-29T08:00:09;3.63;;;2.97;;
8293;SDS011;4185;41.506;24.938;2022-07-29T08:02:36;3.50;;;3.20;;
8293;SDS011;4185;41.506;24.938;2022-07-29T08:05:04;3.67;;;2.90;;
8293;SDS011;4185;41.506;24.938;2022-07-29T08:07:31;3.08;;;2.88;;
8293;SDS011;4185;41.506;24.938;2022-07-29T08:09:59;5.03;;;3.10;;
8293;SDS011;4185;41.506;24.938;2022-07-29T08:12:27;4.30;;;2.85;;
8293;SDS011;4185;41.506;24.938;2022-07-29T08:14:54;3.20;;;2.80;;
8293;SDS011;4185;41.506;24.938;2022-07-29T08:17:21;3.30;;;3.00;;
8293;SDS011;4185;41.506;24.938;2022-07-29T08:19:47;3.05;;;2.83;;
8293;SDS011;4185;41.506;24.938;2022-07-29T08:22:15;4.55;;;3.20;;
8293;SDS011;4185;41.506;24.938;2022-07-29T08:24:41;3.67;;;3.15;;
8293;SDS011;4185;41.506;24.938;2022-07-29T08:27:08;3.13;;;2.78;;
8293;SDS011;4185;41.506;24.938;2022-07-29T08:29:37;3.03;;;2.72;;
8293;SDS011;4185;41.506;24.938;2022-07-29T08:32:05;3.00;;;2.80;;
8293;SDS011;4185;41.506;24.938;2022-07-29T08:34:32;2.72;;;2.53;;
8293;SDS011;4185;41.506;24.938;2022-07-29T08:36:59;6.05;;;3.20;;
8293;SDS011;4185;41.506;24.938;2022-07-29T08:39:26;3.05;;;2.80;;
8293;SDS011;4185;41.506;24.938;2022-07-29T08:41:53;3.50;;;3.20;;
8293;SDS011;4185;41.506;24.938;2022-07-29T08:44:20;3.72;;;3.20;;
8293;SDS011;4185;41.506;24.938;2022-07-29T08:46:49;2.83;;;2.63;;
8293;SDS011;4185;41.506;24.938;2022-07-29T08:49:16;3.10;;;2.80;;
8293;SDS011;4185;41.506;24.938;2022-07-29T08:51:43;3.33;;;3.08;;
8293;SDS011;4185;41.506;24.938;2022-07-29T08:54:10;4.05;;;3.45;;
8293;SDS011;4185;41.506;24.938;2022-07-29T08:56:42;3.22;;;2.92;;
8293;SDS011;4185;41.506;24.938;2022-07-29T08:59:09;2.90;;;2.70;;
8293;SDS011;4185;41.506;24.938;2022-07-29T09:01:37;3.67;;;3.00;;
8293;SDS011;4185;41.506;24.938;2022-07-29T09:04:10;3.10;;;2.70;;
8293;SDS011;4185;41.506;24.938;2022-07-29T09:06:39;4.35;;;3.00;;
8293;SDS011;4185;41.506;24.938;2022-07-29T09:09:13;3.03;;;2.75;;
8293;SDS011;4185;41.506;24.938;2022-07-29T09:11:40;4.43;;;2.72;;
8293;SDS011;4185;41.506;24.938;2022-07-29T09:14:08;3.40;;;3.10;;
8293;SDS011;4185;41.506;24.938;2022-07-29T09:19:27;3.05;;;2.80;;
8293;SDS011;4185;41.506;24.938;2022-07-29T09:21:55;3.03;;;2.83;;
8293;SDS011;4185;41.506;24.938;2022-07-29T09:24:42;3.00;;;2.72;;
8293;SDS011;4185;41.506;24.938;2022-07-29T09:27:11;3.50;;;3.20;;
8293;SDS011;4185;41.506;24.938;2022-07-29T09:29:46;4.07;;;3.05;;
8293;SDS011;4185;41.506;24.938;2022-07-29T09:32:13;3.08;;;2.78;;
8293;SDS011;4185;41.506;24.938;2022-07-29T09:34:42;3.28;;;3.03;;
8293;SDS011;4185;41.506;24.938;2022-07-29T09:37:08;3.47;;;3.13;;
8293;SDS011;4185;41.506;24.938;2022-07-29T09:39:37;3.42;;;3.13;;
8293;SDS011;4185;41.506;24.938;2022-07-29T09:42:11;3.50;;;3.20;;
8293;SDS011;4185;41.506;24.938;2022-07-29T09:44:43;3.30;;;3.00;;
8293;SDS011;4185;41.506;24.938;2022-07-29T09:47:10;3.42;;;3.10;;
8293;SDS011;4185;41.506;24.938;2022-07-29T09:49:51;3.40;;;3.10;;
8293;SDS011;4185;41.506;24.938;2022-07-29T09:52:19;3.70;;;3.10;;
8293;SDS011;4185;41.506;24.938;2022-07-29T09:54:47;3.20;;;2.90;;
8293;SDS011;4185;41.506;24.938;2022-07-29T09:57:24;3.67;;;3.15;;
8293;SDS011;4185;41.506;24.938;2022-07-29T09:59:56;3.72;;;3.42;;
8293;SDS011;4185;41.506;24.938;2022-07-29T10:02:27;3.95;;;2.97;;
8293;SDS011;4185;41.506;24.938;2022-07-29T10:04:57;3.42;;;3.13;;
8293;SDS011;4185;41.506;24.938;2022-07-29T10:07:24;3.10;;;2.80;;
8293;SDS011;4185;41.506;24.938;2022-07-29T10:09:52;4.15;;;3.28;;
8293;SDS011;4185;41.506;24.938;2022-07-29T10:12:20;3.78;;;2.83;;
8293;SDS011;4185;41.506;24.938;2022-07-29T10:14:48;3.05;;;2.78;;
8293;SDS011;4185;41.506;24.938;2022-07-29T10:17:16;3.10;;;2.80;;
8293;SDS011;4185;41.506;24.938;2022-07-29T10:19:44;3.30;;;3.00;;
8293;SDS011;4185;41.506;24.938;2022-07-29T10:22:13;3.25;;;2.78;;
8293;SDS011;4185;41.506;24.938;2022-07-29T10:24:40;5.32;;;3.50;;
8293;SDS011;4185;41.506;24.938;2022-07-29T10:27:07;3.35;;;3.05;;
8293;SDS011;4185;41.506;24.938;2022-07-29T10:29:35;5.60;;;2.85;;
8293;SDS011;4185;41.506;24.938;2022-07-29T10:32:10;3.42;;;3.13;;
8293;SDS011;4185;41.506;24.938;2022-07-29T10:34:48;3.13;;;2.83;;
8293;SDS011;4185;41.506;24.938;2022-07-29T10:37:33;3.35;;;3.05;;
8293;SDS011;4185;41.506;24.938;2022-07-29T10:40:15;3.30;;;3.00;;
8293;SDS011;4185;41.506;24.938;2022-07-29T10:43:07;3.50;;;2.75;;
8293;SDS011;4185;41.506;24.938;2022-07-29T10:45:44;5.97;;;3.17;;
8293;SDS011;4185;41.506;24.938;2022-07-29T10:48:13;5.10;;;3.10;;
8293;SDS011;4185;41.506;24.938;2022-07-29T10:53:45;4.20;;;2.95;;
8293;SDS011;4185;41.506;24.938;2022-07-29T10:56:25;2.97;;;2.78;;
8293;SDS011;4185;41.506;24.938;2022-07-29T11:01:53;3.30;;;3.00;;
8293;SDS011;4185;41.506;24.938;2022-07-29T11:07:24;3.08;;;2.88;;
8293;SDS011;4185;41.506;24.938;2022-07-29T11:12:56;3.45;;;3.08;;
8293;SDS011;4185;41.506;24.938;2022-07-29T11:15:23;4.00;;;3.60;;
8293;SDS011;4185;41.506;24.938;2022-07-29T11:18:03;3.58;;;3.28;;
8293;SDS011;4185;41.506;24.938;2022-07-29T11:20:34;3.50;;;3.20;;
8293;SDS011;4185;41.506;24.938;2022-07-29T11:23:19;3.97;;;3.10;;
8293;SDS011;4185;41.506;24.938;2022-07-29T11:28:53;3.40;;;3.10;;
8293;SDS011;4185;41.506;24.938;2022-07-29T11:31:33;3.33;;;3.03;;
8293;SDS011;4185;41.506;24.938;2022-07-29T11:34:21;3.53;;;3.22;;
8293;SDS011;4185;41.506;24.938;2022-07-29T11:40:08;4.18;;;3.03;;
8293;SDS011;4185;41.506;24.938;2022-07-29T11:42:41;4.18;;;3.20;;
8293;SDS011;4185;41.506;24.938;2022-07-29T11:45:12;5.07;;;3.42;;
8293;SDS011;4185;41.506;24.938;2022-07-29T11:47:42;3.63;;;3.33;;
8293;SDS011;4185;41.506;24.938;2022-07-29T11:50:15;3.20;;;2.88;;
8293;SDS011;4185;41.506;24.938;2022-07-29T11:52:47;4.57;;;3.50;;
8293;SDS011;4185;41.506;24.938;2022-07-29T11:55:14;4.18;;;3.40;;
8293;SDS011;4185;41.506;24.938;2022-07-29T11:57:45;2.92;;;2.72;;
8293;SDS011;4185;41.506;24.938;2022-07-29T12:00:21;3.47;;;3.17;;
8293;SDS011;4185;41.506;24.938;2022-07-29T12:02:49;3.17;;;2.90;;
8293;SDS011;4185;41.506;24.938;2022-07-29T12:05:16;4.72;;;3.40;;
8293;SDS011;4185;41.506;24.938;2022-07-29T12:07:44;3.55;;;3.25;;
8293;SDS011;4185;41.506;24.938;2022-07-29T12:10:11;3.40;;;3.10;;
8293;SDS011;4185;41.506;24.938;2022-07-29T12:12:37;3.60;;;3.30;;
8293;SDS011;4185;41.506;24.938;2022-07-29T12:15:11;3.47;;;3.17;;
8293;SDS011;4185;41.506;24.938;2022-07-29T12:17:41;3.80;;;3.50;;
8293;SDS011;4185;41.506;24.938;2022-07-29T12:20:08;5.07;;;3.22;;
8293;SDS011;4185;41.506;24.938;2022-07-29T12:22:36;5.13;;;3.40;;
8293;SDS011;4185;41.506;24.938;2022-07-29T12:25:06;3.30;;;2.90;;
8293;SDS011;4185;41.506;24.938;2022-07-29T12:27:35;3.70;;;3.40;;
8293;SDS011;4185;41.506;24.938;2022-07-29T12:30:04;3.15;;;2.95;;
8293;SDS011;4185;41.506;24.938;2022-07-29T12:32:34;3.13;;;2.83;;
8293;SDS011;4185;41.506;24.938;2022-07-29T12:35:04;3.60;;;3.28;;
8293;SDS011;4185;41.506;24.938;2022-07-29T12:37:32;4.63;;;3.50;;
8293;SDS011;4185;41.506;24.938;2022-07-29T12:40:00;3.78;;;3.08;;
8293;SDS011;4185;41.506;24.938;2022-07-29T12:42:27;4.43;;;3.22;;
8293;SDS011;4185;41.506;24.938;2022-07-29T12:44:54;3.70;;;3.40;;
8293;SDS011;4185;41.506;24.938;2022-07-29T12:47:21;4.28;;;3.35;;
8293;SDS011;4185;41.506;24.938;2022-07-29T12:49:49;5.05;;;3.47;;
8293;SDS011;4185;41.506;24.938;2022-07-29T12:52:24;3.85;;;3.42;;
8293;SDS011;4185;41.506;24.938;2022-07-29T12:54:55;4.13;;;3.60;;
8293;SDS011;4185;41.506;24.938;2022-07-29T12:57:22;3.80;;;3.50;;
8293;SDS011;4185;41.506;24.938;2022-07-29T12:59:59;4.53;;;4.10;;
8293;SDS011;4185;41.506;24.938;2022-07-29T13:02:28;3.72;;;3.33;;
8293;SDS011;4185;41.506;24.938;2022-07-29T13:04:55;4.05;;;3.65;;
8293;SDS011;4185;41.506;24.938;2022-07-29T13:07:26;5.30;;;4.10;;
8293;SDS011;4185;41.506;24.938;2022-07-29T13:09:54;4.05;;;3.53;;
8293;SDS011;4185;41.506;24.938;2022-07-29T13:12:35;5.13;;;4.07;;
8293;SDS011;4185;41.506;24.938;2022-07-29T13:15:11;4.35;;;3.80;;
8293;SDS011;4185;41.506;24.938;2022-07-29T13:17:39;4.22;;;3.72;;
8293;SDS011;4185;41.506;24.938;2022-07-29T13:20:09;4.50;;;4.10;;
8293;SDS011;4185;41.506;24.938;2022-07-29T13:22:40;4.03;;;3.50;;
8293;SDS011;4185;41.506;24.938;2022-07-29T13:25:08;3.72;;;3.38;;
8293;SDS011;4185;41.506;24.938;2022-07-29T13:27:36;4.20;;;3.80;;
8293;SDS011;4185;41.506;24.938;2022-07-29T13:30:05;4.00;;;3.70;;
8293;SDS011;4185;41.506;24.938;2022-07-29T13:32:34;4.47;;;3.75;;
8293;SDS011;4185;41.506;24.938;2022-07-29T13:35:03;4.43;;;4.03;;
8293;SDS011;4185;41.506;24.938;2022-07-29T13:37:32;4.00;;;3.70;;
8293;SDS011;4185;41.506;24.938;2022-07-29T13:40:01;4.00;;;3.65;;
8293;SDS011;4185;41.506;24.938;2022-07-29T13:42:29;5.05;;;3.78;;
8293;SDS011;4185;41.506;24.938;2022-07-29T13:44:57;5.80;;;4.10;;
8293;SDS011;4185;41.506;24.938;2022-07-29T13:47:24;4.80;;;3.92;;
8293;SDS011;4185;41.506;24.938;2022-07-29T13:49:51;4.63;;;4.22;;
8293;SDS011;4185;41.506;24.938;2022-07-29T13:52:18;4.75;;;4.35;;
8293;SDS011;4185;41.506;24.938;2022-07-29T13:54:46;6.63;;;4.45;;
8293;SDS011;4185;41.506;24.938;2022-07-29T13:57:14;4.03;;;3.70;;
8293;SDS011;4185;41.506;24.938;2022-07-29T13:59:41;7.40;;;4.50;;
8293;SDS011;4185;41.506;24.938;2022-07-29T14:02:09;5.18;;;4.28;;
8293;SDS011;4185;41.506;24.938;2022-07-29T14:04:37;4.60;;;4.18;;
8293;SDS011;4185;41.506;24.938;2022-07-29T14:07:04;5.10;;;4.60;;
8293;SDS011;4185;41.506;24.938;2022-07-29T14:09:31;4.25;;;3.92;;
8293;SDS011;4185;41.506;24.938;2022-07-29T14:11:58;4.50;;;4.07;;
8293;SDS011;4185;41.506;24.938;2022-07-29T14:14:28;4.43;;;4.03;;
8293;SDS011;4185;41.506;24.938;2022-07-29T14:16:56;4.90;;;4.35;;
8293;SDS011;4185;41.506;24.938;2022-07-29T14:19:23;5.97;;;4.07;;
8293;SDS011;4185;41.506;24.938;2022-07-29T14:21:50;4.28;;;3.97;;
8293;SDS011;4185;41.506;24.938;2022-07-29T14:24:17;5.05;;;4.28;;
8293;SDS011;4185;41.506;24.938;2022-07-29T14:26:44;8.20;;;3.88;;
8293;SDS011;4185;41.506;24.938;2022-07-29T14:29:11;4.88;;;4.18;;
8293;SDS011;4185;41.506;24.938;2022-07-29T14:31:39;4.85;;;4.35;;
8293;SDS011;4185;41.506;24.938;2022-07-29T14:34:05;4.65;;;4.20;;
8293;SDS011;4185;41.506;24.938;2022-07-29T14:36:32;4.50;;;4.10;;
8293;SDS011;4185;41.506;24.938;2022-07-29T14:38:59;5.93;;;4.45;;
8293;SDS011;4185;41.506;24.938;2022-07-29T14:41:26;5.53;;;4.15;;
8293;SDS011;4185;41.506;24.938;2022-07-29T14:43:54;3.78;;;3.45;;
8293;SDS011;4185;41.506;24.938;2022-07-29T14:46:21;6.20;;;4.13;;
8293;SDS011;4185;41.506;24.938;2022-07-29T14:48:49;4.45;;;4.05;;
8293;SDS011;4185;41.506;24.938;2022-07-29T14:51:16;4.25;;;3.88;;
8293;SDS011;4185;41.506;24.938;2022-07-29T14:53:43;4.57;;;3.90;;
8293;SDS011;4185;41.506;24.938;2022-07-29T14:56:10;3.90;;;3.53;;
8293;SDS011;4185;41.506;24.938;2022-07-29T14:58:37;4.30;;;3.90;;
8293;SDS011;4185;41.506;24.938;2022-07-29T15:01:04;4.40;;;3.85;;
8293;SDS011;4185;41.506;24.938;2022-07-29T15:03:31;3.80;;;3.40;;
8293;SDS011;4185;41.506;24.938;2022-07-29T15:05:59;3.60;;;3.30;;
8293;SDS011;4185;41.506;24.938;2022-07-29T15:08:26;4.00;;;3.65;;
8293;SDS011;4185;41.506;24.938;2022-07-29T15:10:54;4.32;;;3.97;;
8293;SDS011;4185;41.506;24.938;2022-07-29T15:13:22;4.32;;;3.92;;
8293;SDS011;4185;41.506;24.938;2022-07-29T15:15:49;4.40;;;3.78;;
8293;SDS011;4185;41.506;24.938;2022-07-29T15:18:16;4.57;;;3.50;;
8293;SDS011;4185;41.506;24.938;2022-07-29T15:20:43;5.90;;;3.67;;
8293;SDS011;4185;41.506;24.938;2022-07-29T15:23:12;3.97;;;3.58;;
8293;SDS011;4185;41.506;24.938;2022-07-29T15:25:39;4.32;;;3.65;;
8293;SDS011;4185;41.506;24.938;2022-07-29T15:28:06;4.32;;;3.50;;
8293;SDS011;4185;41.506;24.938;2022-07-29T15:30:33;4.25;;;3.53;;
8293;SDS011;4185;41.506;24.938;2022-07-29T15:33:05;4.07;;;3.78;;